Time;durP1;ratioP1;P1;durP2;ratioP2;P2;SDS_P1;SDS_P2;PMS_P1;PMS_P2;Temp;Humidity;BMP_temperature;BMP_pressure;BME280_temperature;BME280_humidity;BME280_pressure;Samples;Min_cycle;Max_cycle;Signal;HPM_P1;HPM_P2
2023/04/03 00:00:57;;;;;;;0.37;0.37;;;1.10;99.90;;;;;;5091251;28;20851;-79
2023/04/03 00:03:22;;;;;;;0.40;0.40;;;1.00;99.90;;;;;;5069878;28;20224;-79
2023/04/03 00:05:48;;;;;;;0.40;0.40;;;0.90;99.90;;;;;;5092617;28;20544;-79
2023/04/03 00:08:13;;;;;;;0.40;0.40;;;0.90;99.90;;;;;;5092221;28;20197;-80
2023/04/03 00:10:39;;;;;;;0.40;0.40;;;0.80;99.90;;;;;;5070223;28;20273;-79
2023/04/03 00:13:06;;;;;;;0.40;0.40;;;0.90;99.90;;;;;;5085412;28;20555;-79
2023/04/03 00:15:31;;;;;;;0.30;0.30;;;0.90;99.90;;;;;;5087310;28;20524;-79
2023/04/03 00:17:57;;;;;;;0.40;0.40;;;0.70;99.90;;;;;;5093716;28;20429;-80
2023/04/03 00:20:23;;;;;;;0.30;0.30;;;0.80;99.90;;;;;;5087746;28;20193;-79
2023/04/03 00:22:49;;;;;;;0.50;0.50;;;0.90;99.90;;;;;;5090236;28;20347;-79
2023/04/03 00:25:14;;;;;;;0.40;0.40;;;0.70;99.90;;;;;;5091712;28;20518;-79
2023/04/03 00:27:40;;;;;;;0.40;0.40;;;0.60;99.90;;;;;;5091232;28;20193;-79
2023/04/03 00:30:08;;;;;;;0.50;0.50;;;0.70;99.90;;;;;;5068786;28;20217;-79
2023/04/03 00:32:33;;;;;;;0.40;0.40;;;0.70;99.90;;;;;;5073560;28;20189;-79
2023/04/03 00:34:59;;;;;;;0.40;0.40;;;0.80;99.90;;;;;;5090682;28;20441;-79
2023/04/03 00:37:24;;;;;;;0.50;0.50;;;0.80;99.90;;;;;;5089722;28;20181;-79
2023/04/03 00:39:50;;;;;;;0.30;0.30;;;0.90;99.90;;;;;;5090904;28;20189;-80
2023/04/03 00:42:16;;;;;;;0.40;0.40;;;1.00;99.90;;;;;;5089965;28;20241;-79
2023/04/03 00:44:41;;;;;;;0.50;0.50;;;0.80;99.90;;;;;;5089983;28;20192;-79
2023/04/03 00:47:10;;;;;;;0.50;0.50;;;0.90;99.90;;;;;;5071783;28;20443;-79
2023/04/03 00:49:37;;;;;;;0.40;0.40;;;0.60;99.90;;;;;;5073186;28;20192;-79
2023/04/03 00:52:03;;;;;;;0.50;0.50;;;0.50;99.90;;;;;;5072531;28;20576;-79
2023/04/03 00:54:29;;;;;;;0.40;0.40;;;0.50;99.90;;;;;;5068622;28;20538;-79
2023/04/03 00:56:57;;;;;;;0.30;0.30;;;0.60;99.90;;;;;;5088306;28;20427;-79
2023/04/03 00:59:26;;;;;;;0.50;0.50;;;0.40;99.90;;;;;;5072983;28;20443;-79
2023/04/03 01:01:56;;;;;;;0.40;0.40;;;0.60;99.90;;;;;;5089810;28;20501;-80
2023/04/03 01:04:42;;;;;;;0.50;0.50;;;0.50;99.90;;;;;;5079262;28;20547;-79
2023/04/03 01:07:21;;;;;;;0.43;0.43;;;0.30;99.90;;;;;;5088520;28;20442;-79
2023/04/03 01:09:50;;;;;;;0.50;0.50;;;0.50;99.90;;;;;;5088857;28;20447;-79
2023/04/03 01:12:22;;;;;;;0.47;0.47;;;0.30;99.90;;;;;;5092544;28;20481;-79
2023/04/03 01:14:50;;;;;;;0.40;0.40;;;0.50;99.90;;;;;;5089264;28;20445;-79
2023/04/03 01:17:30;;;;;;;0.50;0.50;;;0.50;99.90;;;;;;5090425;28;20516;-79
2023/04/03 01:20:27;;;;;;;0.50;0.50;;;0.50;99.90;;;;;;5078769;28;20436;-79
2023/04/03 01:23:12;;;;;;;0.40;0.40;;;0.40;99.90;;;;;;5045621;28;20832;-79
2023/04/03 01:25:49;;;;;;;0.50;0.50;;;0.30;99.90;;;;;;5086131;28;20504;-79
2023/04/03 01:28:21;;;;;;;0.40;0.40;;;0.20;99.90;;;;;;5090142;28;20439;-79
2023/04/03 01:30:53;;;;;;;0.43;0.43;;;0.30;99.90;;;;;;5087962;28;20439;-79
2023/04/03 01:33:19;;;;;;;0.53;0.53;;;0.20;99.90;;;;;;5085704;28;20575;-80
2023/04/03 01:35:45;;;;;;;0.57;0.57;;;0.20;99.90;;;;;;5085415;28;20534;-80
2023/04/03 01:38:10;;;;;;;0.40;0.40;;;0.20;99.90;;;;;;5090353;28;20234;-79
2023/04/03 01:40:36;;;;;;;0.50;0.50;;;0.10;99.90;;;;;;5089764;28;20189;-80
2023/04/03 01:43:01;;;;;;;0.40;0.40;;;0.10;99.90;;;;;;5091087;28;20209;-79
2023/04/03 01:45:27;;;;;;;0.57;0.57;;;0.00;99.90;;;;;;5069342;28;20188;-79
2023/04/03 01:47:52;;;;;;;0.50;0.50;;;-0.10;99.90;;;;;;5072049;28;20200;-79
2023/04/03 01:50:18;;;;;;;0.50;0.50;;;-0.20;99.90;;;;;;5089148;28;20192;-79
2023/04/03 01:52:44;;;;;;;0.50;0.50;;;-0.20;99.90;;;;;;5086733;28;20185;-80
2023/04/03 01:55:09;;;;;;;0.57;0.57;;;-0.30;99.90;;;;;;5072635;28;20847;-80
2023/04/03 01:57:35;;;;;;;0.60;0.60;;;-0.10;99.90;;;;;;5089966;28;20241;-80
2023/04/03 02:00:00;;;;;;;0.60;0.60;;;-0.10;99.90;;;;;;5089452;28;20196;-79
2023/04/03 02:02:26;;;;;;;0.60;0.60;;;-0.10;99.90;;;;;;5088474;28;20301;-79
2023/04/03 02:04:51;;;;;;;0.60;0.60;;;-0.20;99.90;;;;;;5090194;28;20617;-80
2023/04/03 02:07:17;;;;;;;0.40;0.40;;;-0.10;99.90;;;;;;5090211;28;20190;-79
2023/04/03 02:09:42;;;;;;;0.40;0.40;;;-0.20;99.90;;;;;;5084053;28;20211;-80
2023/04/03 02:12:08;;;;;;;0.50;0.50;;;-0.20;99.90;;;;;;5088875;28;20775;-80
2023/04/03 02:14:34;;;;;;;0.50;0.50;;;-0.20;99.90;;;;;;5090014;28;20273;-80
2023/04/03 02:17:04;;;;;;;0.40;0.40;;;-0.30;99.90;;;;;;5088997;28;20201;-79
2023/04/03 02:19:30;;;;;;;0.50;0.50;;;-0.30;99.90;;;;;;5085785;28;20832;-80
2023/04/03 02:21:59;;;;;;;0.50;0.50;;;-0.30;99.90;;;;;;5072005;28;20482;-80
2023/04/03 02:24:25;;;;;;;0.60;0.60;;;-0.30;99.90;;;;;;5068022;28;20474;-79
2023/04/03 02:26:53;;;;;;;0.50;0.50;;;-0.40;99.90;;;;;;5090593;28;20428;-80
2023/04/03 02:29:24;;;;;;;0.60;0.60;;;-0.40;99.90;;;;;;5071539;28;20427;-79
2023/04/03 02:31:55;;;;;;;0.70;0.70;;;-0.30;99.90;;;;;;5086936;28;20851;-80
2023/04/03 02:34:24;;;;;;;0.70;0.70;;;-0.40;99.90;;;;;;5088345;28;20487;-79
2023/04/03 02:36:52;;;;;;;0.63;0.63;;;-0.40;99.90;;;;;;5085487;28;20450;-79
2023/04/03 02:42:11;;;;;;;0.50;0.50;;;-0.60;99.90;;;;;;4984814;28;20488;-79
2023/04/03 02:44:36;;;;;;;0.50;0.50;;;-0.50;99.90;;;;;;5067457;28;20479;-80
2023/04/03 02:47:11;;;;;;;0.60;0.60;;;-0.30;99.90;;;;;;5087849;28;20485;-79
2023/04/03 02:49:36;;;;;;;0.50;0.50;;;-0.30;99.90;;;;;;5078858;28;20184;-79
2023/04/03 03:04:51;;;;;;;0.60;0.60;;;-0.50;99.90;;;;;;5003414;28;20511;-80
2023/04/03 03:07:17;;;;;;;0.70;0.70;;;-0.40;99.90;;;;;;5026364;28;21001;-80
2023/04/03 03:09:42;;;;;;;0.60;0.60;;;-0.50;99.90;;;;;;5057634;28;20197;-80
2023/04/03 03:12:10;;;;;;;0.50;0.50;;;-0.40;99.90;;;;;;5089258;28;20200;-80
2023/04/03 03:14:46;;;;;;;0.50;0.50;;;-0.60;99.90;;;;;;5080690;28;20284;-80
2023/04/03 03:18:07;;;;;;;0.50;0.50;;;-0.60;99.90;;;;;;5068486;28;20453;-80
2023/04/03 03:31:02;;;;;;;0.40;0.40;;;-0.80;99.90;;;;;;4963713;28;20556;-80
2023/04/03 03:33:46;;;;;;;0.40;0.40;;;-0.80;99.90;;;;;;5013604;28;21135;-80
2023/04/03 03:36:15;;;;;;;0.60;0.60;;;-0.80;99.90;;;;;;5092820;28;20439;-79
2023/04/03 03:38:41;;;;;;;0.70;0.70;;;-0.80;99.90;;;;;;5071034;28;20461;-80
2023/04/03 03:47:29;;;;;;;0.50;0.50;;;-0.80;99.90;;;;;;5056292;28;20834;-79
2023/04/03 03:50:01;;;;;;;0.63;0.63;;;-0.70;99.90;;;;;;5007653;28;22233;-80
2023/04/03 03:52:30;;;;;;;0.60;0.60;;;-0.80;99.90;;;;;;5010906;28;20541;-79
2023/04/03 03:55:02;;;;;;;0.50;0.50;;;-0.80;99.90;;;;;;5090911;28;20534;-79
2023/04/03 03:57:28;;;;;;;0.50;0.50;;;-0.80;99.90;;;;;;5088174;28;20447;-79
2023/04/03 03:59:54;;;;;;;0.50;0.50;;;-0.90;99.90;;;;;;5087460;28;20484;-80
2023/04/03 04:02:28;;;;;;;0.50;0.50;;;-0.90;99.90;;;;;;5091003;28;20475;-80
2023/04/03 04:05:14;;;;;;;0.60;0.60;;;-0.80;99.90;;;;;;5091017;28;20225;-80
2023/04/03 04:08:15;;;;;;;0.60;0.60;;;-0.80;99.90;;;;;;5073675;28;20455;-80
2023/04/03 04:11:12;;;;;;;0.63;0.63;;;-0.80;99.90;;;;;;5089675;28;20541;-79
2023/04/03 04:14:24;;;;;;;0.60;0.60;;;-0.70;99.90;;;;;;5091289;28;20454;-79
2023/04/03 04:17:24;;;;;;;0.60;0.60;;;-0.80;99.90;;;;;;5071230;28;20985;-80
2023/04/03 04:19:57;;;;;;;0.53;0.53;;;-0.90;99.90;;;;;;5092162;28;20799;-80
2023/04/03 04:22:29;;;;;;;0.60;0.60;;;-0.90;99.90;;;;;;5093048;28;20516;-80
2023/04/03 04:24:55;;;;;;;0.70;0.70;;;-1.00;99.90;;;;;;5091794;28;20439;-79
2023/04/03 04:27:29;;;;;;;0.60;0.60;;;-1.10;99.90;;;;;;5089841;28;20512;-80
2023/04/03 04:30:06;;;;;;;0.70;0.70;;;-1.20;99.90;;;;;;5089639;28;20192;-80
2023/04/03 04:32:32;;;;;;;0.50;0.50;;;-1.20;99.90;;;;;;5091627;28;20454;-80
2023/04/03 04:34:58;;;;;;;0.60;0.60;;;-1.20;99.90;;;;;;5088075;28;20434;-79
2023/04/03 04:37:26;;;;;;;0.70;0.70;;;-1.30;99.90;;;;;;5092683;28;20711;-80
2023/04/03 04:39:54;;;;;;;0.70;0.70;;;-1.30;99.90;;;;;;5090253;28;20579;-80
2023/04/03 04:42:20;;;;;;;0.50;0.50;;;-1.30;99.90;;;;;;5090961;28;20482;-80
2023/04/03 04:44:46;;;;;;;0.60;0.60;;;-1.20;99.90;;;;;;5080863;28;20484;-80
2023/04/03 04:47:22;;;;;;;0.60;0.60;;;-1.20;99.90;;;;;;5090544;28;20201;-79
2023/04/03 04:50:07;;;;;;;0.53;0.53;;;-1.30;99.90;;;;;;5072363;28;20193;-80
2023/04/03 04:52:38;;;;;;;0.57;0.57;;;-1.30;99.90;;;;;;5089945;28;20435;-80
2023/04/03 04:55:04;;;;;;;0.60;0.60;;;-1.40;99.90;;;;;;5066864;28;20458;-80
2023/04/03 04:57:30;;;;;;;0.60;0.60;;;-1.30;99.90;;;;;;5090431;28;20447;-80
2023/04/03 04:59:55;;;;;;;0.50;0.50;;;-1.30;99.90;;;;;;5088923;28;20443;-80
2023/04/03 05:02:33;;;;;;;0.50;0.50;;;-1.40;99.90;;;;;;5090077;28;20224;-80
2023/04/03 05:04:59;;;;;;;0.50;0.50;;;-1.40;99.90;;;;;;5066064;28;20309;-79
2023/04/03 05:07:59;;;;;;;0.60;0.60;;;-1.30;99.90;;;;;;5069525;28;20530;-80
2023/04/03 05:10:34;;;;;;;0.70;0.70;;;-1.30;99.90;;;;;;5067568;28;20192;-80
2023/04/03 05:13:09;;;;;;;0.67;0.67;;;-1.40;99.90;;;;;;5069000;28;20842;-81
2023/04/03 05:15:35;;;;;;;0.60;0.60;;;-1.30;99.90;;;;;;5084870;28;20954;-81
2023/04/03 05:18:00;;;;;;;0.60;0.60;;;-1.30;99.90;;;;;;5082539;28;20450;-80
2023/04/03 05:20:26;;;;;;;0.60;0.60;;;-1.20;99.90;;;;;;5089652;28;20204;-81
2023/04/03 05:22:52;;;;;;;0.60;0.60;;;-1.10;99.90;;;;;;5091126;28;20248;-81
2023/04/03 05:25:17;;;;;;;0.50;0.50;;;-1.10;99.90;;;;;;5090587;28;20282;-81
2023/04/03 05:27:59;;;;;;;0.53;0.53;;;-1.20;99.90;;;;;;5078631;28;20189;-81
2023/04/03 05:30:55;;;;;;;;;;;;;;;;;;;;;
2023/04/03 05:33:48;;;;;;;;;;;;;;;;;;;;;
2023/04/03 05:36:14;;;;;;;0.50;0.50;;;-1.20;99.90;;;;;;5089023;28;20927;-80
2023/04/03 05:38:47;;;;;;;0.60;0.60;;;-1.20;99.90;;;;;;5085398;28;20462;-80
2023/04/03 05:41:40;;;;;;;0.63;0.63;;;-1.10;99.90;;;;;;5078696;28;20443;-80
2023/04/03 05:44:05;;;;;;;0.57;0.57;;;-0.90;99.90;;;;;;5051954;28;20430;-80
2023/04/03 05:46:31;;;;;;;0.50;0.50;;;-0.70;99.90;;;;;;5052333;28;20478;-81
2023/04/03 05:48:57;;;;;;;0.40;0.40;;;-0.50;99.90;;;;;;5059541;28;20186;-82
2023/04/03 05:51:44;;;;;;;0.50;0.50;;;-0.50;99.90;;;;;;5052025;28;20274;-81
2023/04/03 05:54:18;;;;;;;0.50;0.50;;;-0.40;99.90;;;;;;5048768;28;20182;-81
2023/04/03 05:56:44;;;;;;;0.60;0.60;;;-0.40;99.90;;;;;;5061751;28;20452;-81
2023/04/03 05:59:10;;;;;;;0.60;0.60;;;-0.30;99.90;;;;;;5051445;28;21557;-81
2023/04/03 06:01:35;;;;;;;0.50;0.50;;;-0.10;99.90;;;;;;5040238;28;20516;-81
2023/04/03 06:04:01;;;;;;;0.50;0.50;;;-0.10;99.90;;;;;;5045138;28;20199;-81
2023/04/03 06:06:48;;;;;;;0.40;0.40;;;0.10;99.90;;;;;;5030087;28;20250;-81
2023/04/03 06:09:15;;;;;;;0.60;0.60;;;0.20;99.90;;;;;;5055274;28;20196;-80
2023/04/03 06:11:41;;;;;;;0.60;0.60;;;0.30;99.90;;;;;;5089252;28;20445;-81
2023/04/03 06:14:08;;;;;;;0.50;0.50;;;0.30;99.90;;;;;;5083386;28;20439;-80
2023/04/03 06:16:33;;;;;;;0.50;0.50;;;0.30;99.90;;;;;;5066970;28;21060;-80
2023/04/03 06:18:59;;;;;;;0.47;0.47;;;0.60;99.90;;;;;;5089679;28;20439;-80
2023/04/03 06:21:25;;;;;;;0.43;0.43;;;0.90;99.90;;;;;;5085926;28;20181;-81
2023/04/03 06:23:51;;;;;;;0.50;0.50;;;1.10;99.90;;;;;;5083202;28;20634;-80
2023/04/03 06:26:16;;;;;;;0.50;0.50;;;1.20;99.90;;;;;;5080272;28;20541;-81
2023/04/03 06:28:42;;;;;;;0.40;0.40;;;1.30;99.90;;;;;;5076644;28;20443;-81
2023/04/03 06:31:08;;;;;;;0.50;0.50;;;2.20;99.90;;;;;;5082356;28;20196;-84
2023/04/03 06:33:34;;;;;;;0.40;0.40;;;2.50;99.90;;;;;;5055939;28;20233;-85
2023/04/03 06:36:03;;;;;;;0.40;0.40;;;2.60;99.90;;;;;;5062624;28;20993;-81
2023/04/03 06:38:28;;;;;;;0.33;0.33;;;2.50;99.90;;;;;;5081038;28;21065;-81
2023/04/03 06:40:55;;;;;;;0.40;0.40;;;2.30;99.90;;;;;;5081295;28;20537;-81
2023/04/03 06:43:21;;;;;;;0.40;0.40;;;2.30;99.90;;;;;;5085676;28;20227;-82
2023/04/03 06:45:47;;;;;;;0.40;0.40;;;2.50;99.90;;;;;;5069335;28;20439;-81
2023/04/03 06:48:13;;;;;;;0.40;0.40;;;2.70;99.90;;;;;;5075505;28;20185;-82
2023/04/03 06:50:39;;;;;;;0.40;0.40;;;3.00;99.90;;;;;;5089226;28;20295;-81
2023/04/03 06:53:05;;;;;;;0.40;0.40;;;3.40;99.90;;;;;;5088274;28;20185;-81
2023/04/03 06:55:31;;;;;;;0.40;0.40;;;3.50;99.90;;;;;;5089008;28;20454;-81
2023/04/03 06:57:57;;;;;;;0.30;0.30;;;3.60;99.90;;;;;;5088364;28;20435;-81
2023/04/03 07:00:22;;;;;;;0.40;0.40;;;3.40;99.90;;;;;;5083319;28;20280;-81
2023/04/03 07:02:48;;;;;;;0.40;0.40;;;3.30;99.90;;;;;;5086564;28;20217;-82
2023/04/03 07:05:14;;;;;;;0.40;0.40;;;3.30;99.90;;;;;;5074041;28;20230;-82
2023/04/03 07:07:40;;;;;;;0.40;0.40;;;3.30;99.90;;;;;;5081288;28;20232;-81
2023/04/03 07:10:07;;;;;;;0.30;0.30;;;3.20;99.90;;;;;;5086887;28;20234;-82
2023/04/03 07:12:32;;;;;;;0.50;0.50;;;3.40;99.90;;;;;;5070739;28;21019;-82
2023/04/03 07:14:58;;;;;;;0.40;0.40;;;3.50;99.90;;;;;;5086681;28;20438;-82
2023/04/03 07:17:25;;;;;;;0.40;0.40;;;3.60;99.90;;;;;;5087033;28;20250;-82
2023/04/03 07:19:50;;;;;;;0.40;0.40;;;3.90;99.90;;;;;;5055212;28;20621;-82
2023/04/03 07:22:16;;;;;;;0.40;0.40;;;3.90;99.90;;;;;;5077692;28;20527;-82
2023/04/03 07:24:42;;;;;;;0.30;0.30;;;4.10;99.90;;;;;;5065511;28;20188;-81
2023/04/03 07:27:08;;;;;;;0.40;0.40;;;4.20;99.90;;;;;;5081375;28;20189;-81
2023/04/03 07:29:35;;;;;;;0.30;0.30;;;4.40;99.90;;;;;;5083108;28;20238;-81
2023/04/03 07:32:00;;;;;;;0.40;0.40;;;4.50;99.90;;;;;;5084887;28;20439;-80
2023/04/03 07:34:27;;;;;;;0.30;0.30;;;4.70;99.90;;;;;;5090259;28;20443;-82
2023/04/03 07:36:52;;;;;;;0.40;0.40;;;4.70;99.90;;;;;;5063685;28;20206;-81
2023/04/03 07:39:18;;;;;;;0.30;0.30;;;4.80;99.90;;;;;;5067377;28;20435;-81
2023/04/03 07:41:44;;;;;;;0.40;0.40;;;4.90;99.90;;;;;;5088156;28;20277;-82
2023/04/03 07:44:10;;;;;;;0.40;0.40;;;5.10;99.90;;;;;;5076834;28;20632;-81
2023/04/03 07:46:36;;;;;;;0.30;0.30;;;5.00;99.90;;;;;;5084193;28;20173;-82
2023/04/03 07:49:01;;;;;;;0.30;0.30;;;4.90;99.90;;;;;;5077744;28;20193;-82
2023/04/03 07:51:28;;;;;;;0.30;0.30;;;5.10;99.90;;;;;;5050923;28;20435;-82
2023/04/03 07:53:53;;;;;;;0.40;0.40;;;5.10;99.90;;;;;;5079239;28;20620;-82
2023/04/03 07:56:20;;;;;;;0.30;0.30;;;5.50;99.90;;;;;;5079581;28;20519;-82
2023/04/03 08:34:21;;;;;;;0.20;0.20;;;6.40;99.90;;;;;;4866340;27;6448764;-84
2023/04/03 08:36:47;;;;;;;0.20;0.20;;;6.50;99.90;;;;;;5079193;28;20582;-84
2023/04/03 08:39:13;;;;;;;0.20;0.20;;;6.90;99.90;;;;;;5078990;28;20181;-81
2023/04/03 08:41:43;;;;;;;0.20;0.20;;;6.80;99.90;;;;;;5073621;28;20216;-83
2023/04/03 08:44:32;;;;;;;0.20;0.20;;;7.40;99.90;;;;;;5072646;28;20189;-83
2023/04/03 08:47:04;;;;;;;0.20;0.20;;;7.60;99.90;;;;;;5079129;28;20443;-83
2023/04/03 08:49:37;;;;;;;0.20;0.20;;;7.70;99.90;;;;;;5081812;28;20943;-82
2023/04/03 08:52:12;;;;;;;0.17;0.17;;;7.50;99.90;;;;;;5076212;28;20542;-83
2023/04/03 08:54:50;;;;;;;0.17;0.17;;;7.70;99.90;;;;;;5059536;28;20452;-83
2023/04/03 08:57:20;;;;;;;0.20;0.20;;;8.00;99.90;;;;;;5061385;28;20452;-84
2023/04/03 08:59:45;;;;;;;0.10;0.10;;;7.80;99.90;;;;;;5065981;28;20451;-83
2023/04/03 09:02:33;;;;;;;0.10;0.10;;;8.10;99.90;;;;;;5058006;28;20435;-84
2023/04/03 09:04:59;;;;;;;0.10;0.10;;;7.70;99.90;;;;;;5072168;28;20570;-83
2023/04/03 09:07:42;;;;;;;0.10;0.10;;;8.30;99.90;;;;;;5079617;28;20443;-83
2023/04/03 09:10:12;;;;;;;0.10;0.10;;;8.10;99.90;;;;;;5068853;28;20185;-83
2023/04/03 09:12:41;;;;;;;0.10;0.10;;;8.10;99.90;;;;;;5083661;28;21060;-84
2023/04/03 09:15:15;;;;;;;0.10;0.10;;;7.80;99.90;;;;;;5067063;28;20450;-83
2023/04/03 09:17:44;;;;;;;0.17;0.17;;;8.20;99.90;;;;;;5073520;28;21033;-84
2023/04/03 09:20:26;;;;;;;0.13;0.13;;;8.80;99.90;;;;;;5050407;28;20952;-83
2023/04/03 09:22:53;;;;;;;0.13;0.13;;;9.30;99.90;;;;;;5076998;28;20447;-83
2023/04/03 09:25:37;;;;;;;0.10;0.10;;;9.20;99.90;;;;;;5057419;28;20471;-84
2023/04/03 09:28:09;;;;;;;0.10;0.10;;;9.20;99.90;;;;;;5050578;28;20539;-83
2023/04/03 09:30:35;;;;;;;0.10;0.10;;;9.40;99.90;;;;;;5069724;28;20447;-83
2023/04/03 09:33:01;;;;;;;0.10;0.10;;;9.00;99.90;;;;;;5060828;28;20526;-83
2023/04/03 09:35:30;;;;;;;0.10;0.10;;;8.90;99.90;;;;;;5058797;28;20450;-83
2023/04/03 09:37:59;;;;;;;0.07;0.07;;;9.70;99.90;;;;;;5065700;28;20456;-83
2023/04/03 09:40:28;;;;;;;0.10;0.10;;;10.00;99.50;;;;;;5076630;28;20431;-82
2023/04/03 09:42:56;;;;;;;0.10;0.10;;;10.50;99.90;;;;;;5058617;28;20453;-82
2023/04/03 09:45:34;;;;;;;0.10;0.10;;;10.40;99.40;;;;;;5062963;28;20959;-83
2023/04/03 09:48:12;;;;;;;0.10;0.10;;;10.60;98.40;;;;;;5058933;28;20494;-82
2023/04/03 09:50:51;;;;;;;0.10;0.10;;;10.60;97.30;;;;;;5045307;28;20460;-82
2023/04/03 09:53:42;;;;;;;0.10;0.10;;;11.00;98.60;;;;;;5057618;28;20510;-84
2023/04/03 09:56:17;;;;;;;0.10;0.10;;;10.80;96.30;;;;;;5041508;28;20825;-83
2023/04/03 09:58:45;;;;;;;0.10;0.10;;;11.30;97.30;;;;;;5067293;28;20442;-83
2023/04/03 10:01:28;;;;;;;0.10;0.10;;;12.00;98.20;;;;;;5063637;28;20516;-83
2023/04/03 10:04:12;;;;;;;0.10;0.10;;;11.90;96.90;;;;;;5048165;28;20451;-84
2023/04/03 10:06:50;;;;;;;0.10;0.10;;;12.20;92.20;;;;;;5049613;28;20889;-84
2023/04/03 10:09:23;;;;;;;0.10;0.10;;;11.80;92.20;;;;;;5062371;28;20444;-82
2023/04/03 10:12:08;;;;;;;0.10;0.10;;;12.00;94.90;;;;;;5053701;28;20953;-83
2023/04/03 10:15:03;;;;;;;0.00;0.00;;;12.50;96.00;;;;;;5056673;28;20808;-84
2023/04/03 10:17:50;;;;;;;0.10;0.10;;;12.50;95.40;;;;;;5053149;28;20444;-84
2023/04/03 10:20:27;;;;;;;0.00;0.00;;;12.60;94.70;;;;;;5038663;28;20449;-83
2023/04/03 10:23:17;;;;;;;0.00;0.00;;;13.20;95.80;;;;;;5038750;28;20437;-83
2023/04/03 10:26:16;;;;;;;0.00;0.00;;;13.50;95.70;;;;;;5061698;28;20802;-83
2023/04/03 10:28:56;;;;;;;0.00;0.00;;;13.40;94.80;;;;;;5062439;28;20435;-81
2023/04/03 10:31:31;;;;;;;0.00;0.00;;;13.00;93.90;;;;;;5041306;28;20506;-81
2023/04/03 10:33:59;;;;;;;0.00;0.00;;;13.30;94.80;;;;;;5041064;28;21050;-82
2023/04/03 10:36:34;;;;;;;0.00;0.00;;;12.90;95.90;;;;;;5056165;28;20502;-81
2023/04/03 10:39:10;;;;;;;0.00;0.00;;;12.70;95.60;;;;;;5041711;28;20445;-79
2023/04/03 10:41:44;;;;;;;0.00;0.00;;;;;;;;;;5067813;28;20436;-81
2023/04/03 10:44:17;;;;;;;0.00;0.00;;;;;;;;;;5067562;28;20447;-81
2023/04/03 10:47:06;;;;;;;0.00;0.00;;;;;;;;;;5052345;28;20531;-80
2023/04/03 10:49:50;;;;;;;0.00;0.00;;;;;;;;;;5049279;28;20941;-81
2023/04/03 10:52:22;;;;;;;0.00;0.00;;;;;;;;;;5047729;28;20536;-84
2023/04/03 10:55:04;;;;;;;0.00;0.00;;;;;;;;;;5048513;28;20539;-84
2023/04/03 10:57:30;;;;;;;0.00;0.00;;;;;;;;;;5053844;28;20427;-81
2023/04/03 10:59:56;;;;;;;0.00;0.00;;;;;;;;;;5068898;28;20452;-82
2023/04/03 11:02:28;;;;;;;0.00;0.00;;;;;;;;;;5060012;28;20502;-83
2023/04/03 11:05:00;;;;;;;0.00;0.00;;;13.40;99.90;;;;;;5049277;28;20657;-84
2023/04/03 11:07:36;;;;;;;0.00;0.00;;;;;;;;;;5066418;28;20456;-82
2023/04/03 11:10:21;;;;;;;0.00;0.00;;;;;;;;;;5062510;28;20962;-85
2023/04/03 11:12:49;;;;;;;0.00;0.00;;;;;;;;;;5043992;28;20478;-83
2023/04/03 11:15:19;;;;;;;0.00;0.00;;;;;;;;;;5058882;28;20479;-83
2023/04/03 11:17:52;;;;;;;0.00;0.00;;;;;;;;;;5053674;28;20446;-83
2023/04/03 11:20:20;;;;;;;0.00;0.00;;;;;;;;;;5042543;28;20470;-83
2023/04/03 11:22:52;;;;;;;0.00;0.00;;;;;;;;;;5050185;28;20437;-82
2023/04/03 11:25:24;;;;;;;0.00;0.00;;;;;;;;;;5049054;28;20528;-82
2023/04/03 11:27:53;;;;;;;0.00;0.00;;;;;;;;;;5054204;28;20491;-82
2023/04/03 11:30:27;;;;;;;0.00;0.00;;;11.60;99.90;;;;;;5062793;28;20476;-81
2023/04/03 11:33:08;;;;;;;0.00;0.00;;;10.60;91.40;;;;;;5056844;28;21051;-80
2023/04/03 11:35:35;;;;;;;0.00;0.00;;;12.00;90.40;;;;;;5052813;28;20986;-82
2023/04/03 11:38:08;;;;;;;0.00;0.00;;;;;;;;;;5057559;28;20432;-84
2023/04/03 11:40:36;;;;;;;0.00;0.00;;;15.20;99.90;;;;;;5062366;28;20535;-82
2023/04/03 11:43:02;;;;;;;0.00;0.00;;;;;;;;;;5069133;28;20435;-82
2023/04/03 11:45:33;;;;;;;0.00;0.00;;;;;;;;;;5049713;28;20958;-81
2023/04/03 11:48:22;;;;;;;0.00;0.00;;;;;;;;;;5041026;28;20451;-83
2023/04/03 11:50:48;;;;;;;0.00;0.00;;;;;;;;;;5046369;28;20480;-82
2023/04/03 11:53:14;;;;;;;0.00;0.00;;;;;;;;;;5045166;28;20570;-83
2023/04/03 11:55:49;;;;;;;0.00;0.00;;;;;;;;;;5061421;28;20524;-83
2023/04/03 11:58:15;;;;;;;0.00;0.00;;;;;;;;;;5047517;28;20274;-82
2023/04/03 12:05:51;;;;;;;0.00;0.00;;;;;;;;;;5058816;28;20501;-82
2023/04/03 12:08:30;;;;;;;0.00;0.00;;;;;;;;;;5058701;28;20449;-82
2023/04/03 12:13:49;;;;;;;0.00;0.00;;;17.30;99.90;;;;;;5062053;28;21025;-83
2023/04/03 12:16:22;;;;;;;0.00;0.00;;;;;;;;;;5065982;28;20497;-83
2023/04/03 12:18:55;;;;;;;0.00;0.00;;;;;;;;;;5049065;28;20540;-82
2023/04/03 12:21:30;;;;;;;0.00;0.00;;;;;;;;;;5058889;28;20437;-83
2023/04/03 12:24:08;;;;;;;0.00;0.00;;;;;;;;;;5062247;28;20854;-83
2023/04/03 12:26:44;;;;;;;0.00;0.00;;;17.40;99.90;;;;;;5054852;28;20808;-83
2023/04/03 12:29:35;;;;;;;0.00;0.00;;;17.60;97.60;;;;;;5044830;28;20452;-82
2023/04/03 12:32:06;;;;;;;0.00;0.00;;;16.90;93.70;;;;;;5050884;28;20508;-82
2023/04/03 12:35:05;;;;;;;0.00;0.00;;;16.90;95.80;;;;;;5040610;28;20542;-82
2023/04/03 12:37:44;;;;;;;0.00;0.00;;;;;;;;;;5048905;28;20515;-82
2023/04/03 12:40:41;;;;;;;0.00;0.00;;;17.40;99.60;;;;;;5046817;28;20535;-81
2023/04/03 12:44:01;;;;;;;0.00;0.00;;;17.30;95.60;;;;;;5039048;28;20464;-82
2023/04/03 12:46:29;;;;;;;0.00;0.00;;;;;;;;;;4966737;28;20458;-81
2023/04/03 12:48:57;;;;;;;0.00;0.00;;;17.60;98.20;;;;;;5036714;28;20507;-82
2023/04/03 12:51:29;;;;;;;0.00;0.00;;;;;;;;;;5046673;28;20448;-82
2023/04/03 12:54:00;;;;;;;0.00;0.00;;;;;;;;;;5047338;28;20567;-82
2023/04/03 12:56:28;;;;;;;0.00;0.00;;;17.70;98.10;;;;;;5048364;28;20410;-82
2023/04/03 12:59:12;;;;;;;0.00;0.00;;;17.60;96.00;;;;;;5047506;28;20445;-83
2023/04/03 13:01:37;;;;;;;0.00;0.00;;;17.50;94.20;;;;;;5046348;28;20440;-82
2023/04/03 13:04:03;;;;;;;0.00;0.00;;;17.20;93.70;;;;;;5040677;28;20453;-82
2023/04/03 13:06:37;;;;;;;0.00;0.00;;;17.10;93.30;;;;;;5038046;28;20206;-82
2023/04/03 13:09:04;;;;;;;0.00;0.00;;;17.70;97.40;;;;;;5041845;28;20452;-82
2023/04/03 13:11:40;;;;;;;0.00;0.00;;;;;;;;;;5038578;28;20552;-82
2023/04/03 13:14:23;;;;;;;0.00;0.00;;;18.00;96.20;;;;;;5035479;28;20854;-82
2023/04/03 13:17:03;;;;;;;0.00;0.00;;;18.10;97.50;;;;;;5029199;28;20445;-82
2023/04/03 13:19:29;;;;;;;0.00;0.00;;;17.70;98.60;;;;;;5029182;28;20595;-83
2023/04/03 13:22:26;;;;;;;0.00;0.00;;;17.90;95.40;;;;;;5039060;28;20525;-82
2023/04/03 13:24:53;;;;;;;0.00;0.00;;;;;;;;;;5043491;28;20199;-83
2023/04/03 13:27:19;;;;;;;0.00;0.00;;;;;;;;;;5047654;28;20436;-82
2023/04/03 13:29:49;;;;;;;0.00;0.00;;;;;;;;;;5040871;28;20487;-82
2023/04/03 13:32:21;;;;;;;0.00;0.00;;;;;;;;;;5048105;28;20428;-83
2023/04/03 13:34:47;;;;;;;0.00;0.00;;;;;;;;;;5061120;28;20491;-83
2023/04/03 13:37:27;;;;;;;0.00;0.00;;;18.90;98.60;;;;;;5054007;28;20433;-82
2023/04/03 13:40:08;;;;;;;0.00;0.00;;;;;;;;;;5058546;28;20467;-83
2023/04/03 13:42:36;;;;;;;0.00;0.00;;;;;;;;;;5066422;28;20471;-82
2023/04/03 13:45:23;;;;;;;0.00;0.00;;;;;;;;;;5045226;28;20528;-81
2023/04/03 13:47:50;;;;;;;0.00;0.00;;;;;;;;;;5040517;28;20424;-81
2023/04/03 13:50:19;;;;;;;0.00;0.00;;;;;;;;;;5062225;28;20494;-82
2023/04/03 13:53:07;;;;;;;0.00;0.00;;;;;;;;;;5065070;28;20432;-81
2023/04/03 13:55:35;;;;;;;0.00;0.00;;;;;;;;;;5050708;28;20442;-81
2023/04/03 13:58:17;;;;;;;0.00;0.00;;;;;;;;;;5052955;28;20450;-82
2023/04/03 14:00:54;;;;;;;0.00;0.00;;;;;;;;;;5056770;28;20424;-81
2023/04/03 14:03:26;;;;;;;0.00;0.00;;;;;;;;;;5038464;28;20432;-81
2023/04/03 14:05:52;;;;;;;0.00;0.00;;;;;;;;;;5059688;28;20560;-81
2023/04/03 14:08:19;;;;;;;0.00;0.00;;;;;;;;;;5067225;28;20497;-81
2023/04/03 14:10:47;;;;;;;0.00;0.00;;;;;;;;;;5060538;28;21110;-81
2023/04/03 14:13:14;;;;;;;0.00;0.00;;;;;;;;;;5050388;28;20461;-82
2023/04/03 14:15:40;;;;;;;0.00;0.00;;;;;;;;;;5057509;28;20452;-81
2023/04/03 14:18:06;;;;;;;0.00;0.00;;;;;;;;;;5054033;28;20445;-81
2023/04/03 14:20:31;;;;;;;0.00;0.00;;;17.40;98.50;;;;;;5059519;28;20501;-81
2023/04/03 14:22:58;;;;;;;0.00;0.00;;;;;;;;;;5064108;28;20439;-81
2023/04/03 14:25:25;;;;;;;0.00;0.00;;;;;;;;;;5071437;28;20230;-81
2023/04/03 14:27:54;;;;;;;0.00;0.00;;;18.20;99.00;;;;;;5049912;28;20467;-81
2023/04/03 14:30:23;;;;;;;0.00;0.00;;;;;;;;;;5044612;28;20454;-81
2023/04/03 14:32:49;;;;;;;0.00;0.00;;;;;;;;;;5053579;28;20757;-81
2023/04/03 14:35:16;;;;;;;0.00;0.00;;;;;;;;;;5053986;28;20779;-81
2023/04/03 14:37:42;;;;;;;0.00;0.00;;;;;;;;;;5070337;28;20416;-81
2023/04/03 14:40:09;;;;;;;0.00;0.00;;;;;;;;;;5069854;28;20428;-82
2023/04/03 14:42:36;;;;;;;0.00;0.00;;;;;;;;;;5061199;28;20439;-82
2023/04/03 14:45:03;;;;;;;0.00;0.00;;;;;;;;;;5050767;28;20527;-82
2023/04/03 14:47:30;;;;;;;0.00;0.00;;;;;;;;;;5052222;28;20993;-82
2023/04/03 14:49:56;;;;;;;0.00;0.00;;;;;;;;;;5052572;28;20458;-82
2023/04/03 14:52:24;;;;;;;0.00;0.00;;;;;;;;;;5059519;28;20441;-82
2023/04/03 14:54:50;;;;;;;0.00;0.00;;;;;;;;;;5057216;28;20480;-82